Aeroporto :
LOGIN :

Iscrizione | Disclaimer

   EN    FR    IT 

 










Sommario :    VFR   VFR Marginale   IFR   IFR Intensivo   IFR Molto Intensivo
Visibilità : 
Base nubi : 
>= 8 km
>= 3000ft
5 / 8 km
1000 / 3000 ft
1500m / 5 km
500 / 1000 ft
800 / 1500m
200 / 500 ft
< 800m
< 200 ft
Simboli :   Temporali  Nebbia  Neve Forte  Precipitazioni Forti  Vento > 20 kt
SIGMETs :   Varie  Temporali  Ghiacco  Turbolenza  Onda orograficha  Ceneri Vulcaniche






- Altitudine del aeroporto : 289 ft


LFYR - Romorantin Pruniers

ULTIMO METAR :
  • 141830Z AUTO 20005KT 160V250 9999 -RA FEW024/// OVC094/// ///CB 15/14 Q1008

METARs OBSOLETI :
  • 141800Z AUTO 22009KT 180V250 9999 -RA FEW013/// BKN074/// OVC100/// ///TCU 16/14 Q1008
  • 141730Z AUTO 23007KT 190V260 9999 ///TCU 17/13 Q1007
  • 141700Z AUTO 24011KT 210V270 9999 -RA FEW042/// BKN056/// BKN068/// ///TCU 18/13 Q1008
  • 141630Z AUTO 21012G27KT 180V290 9999 -RA FEW043/// SCT058/// OVC098/// ///CB 20/14 Q1007
  • 141600Z AUTO 19013G24KT 150V210 9999 -RA ///TCU 23/14 Q1005

Previsioni scadute.



MetMap, La meteo Aeronautica in un colpo d'occhio ! - Copyright ORBIFLY Dicembre 2007 - Disclaimer

ORBIFLY MET'MAP TEAM :

Programmazione e sviluppo : Alexandra Zaïnal
Concezione e sviluppo : Baudouin d'Aumeries
Co-Programmazione e sviluppo : Marc-Olivier Méhu
Supporto tecnico e logistico : Manuel Goepfert
Aiuto per la traduzione : Arnaldo La Scala

Contatto : metmap@orbifly.com




FONTI E CREDITI :

   NOAA